Tropical Cyclones
[Index]
Main Index Home Page Stock Weather Photos Extreme Storms Discussion Storm News and Storm Chasing Reports Tropical Cyclones / Hurricanes / Typhoons Weather Data and Links Wild Fires / Bushfires Weather Observation Techniques Weather Picture Catalogue Tornado Pictures and Reports Stock Video Footage and DVDs for sale
Season 2003-2004 Tropical Cyclone BENI Track Map
Season 2003-2004 Summaries: [BoM-AU] [JTWC-AU] [JTWC-SIO] [JTWC-SPAC] [JTWC-SH]
<<- Previous TC | JTWC 2003-2004 Season | Next TC ->>

click for intensity scale information  Lat/long Grid: Show Hide

 Date Labels: Show Hide

Joint Typhoon Warning Centre Cyclone Data

Name: BENI

08 Nov 2003 12:00 UTC to 22 Nov 2003 18:00 UTC

    date/time    lat    long     hPa   cat  kts
2003-11-08 12    4.9    79.4    1002         25          
2003-11-08 18    5.0    79.0    1002         25          
2003-11-09 00    5.4    78.7    1000         30          
2003-11-09 06    5.9    78.4    1000         30          
2003-11-09 12    6.4    78.0    1000         30          
2003-11-09 18    6.6    77.5    1000         30          
2003-11-10 00    6.8    76.9    1000         30          
2003-11-10 06    7.0    76.3    1000         30          
2003-11-10 12    7.2    75.9     997         35          
2003-11-10 18    7.4    75.5     997         35          
2003-11-11 00    7.5    75.1     994    1    40          
2003-11-11 06    7.6    74.8     991    1    45          
2003-11-11 12    7.9    74.5     991    1    45          
2003-11-11 18    8.2    74.4     987    1    50          
2003-11-12 00    8.7    74.4     987    1    50          
2003-11-12 06    9.2    74.4     984    2    55          
2003-11-12 12    9.6    74.6     980    2    60          
2003-11-12 18   10.1    74.8     972    2    70          
2003-11-13 00   10.6    75.0     954    3    90          
2003-11-13 06   10.9    75.2     954    3    90          
2003-11-13 12   11.2    75.7     944    4   100          
2003-11-13 18   11.6    76.2     944    4   100          
2003-11-14 00   12.1    76.6     967    3    75          
2003-11-14 06   12.4    77.4     984    2    55          
2003-11-14 12   12.7    77.9     987    1    50          
2003-11-14 18   13.0    78.2     991    1    45          
2003-11-15 00   13.2    78.4     991    1    45          
2003-11-15 06   13.2    78.5     997         35          
2003-11-15 12   13.1    78.6    1000         30          
2003-11-15 18   13.0    78.6    1000         30          
2003-11-16 00   12.8    78.5    1000         30          
2003-11-16 06   12.6    78.4    1000         30          
2003-11-16 12   12.3    78.3    1000         30          
2003-11-16 18   12.0    78.0    1000         30          
2003-11-17 00   11.9    77.6    1000         30          
2003-11-17 06   11.8    77.0    1000         30          
2003-11-17 12   11.7    76.5    1000         30          
2003-11-17 18   11.5    76.0     997         35          
2003-11-18 00   11.4    75.4     991    1    45          
2003-11-18 06   11.4    74.9     984    2    55          
2003-11-18 12   11.5    74.5     980    2    60          
2003-11-18 18   11.6    74.1     984    2    55          
2003-11-19 00   11.8    73.6     984    2    55          
2003-11-19 06   12.0    73.1     976    2    65          
2003-11-19 12   12.3    72.5     967    3    75          
2003-11-19 18   12.5    72.0     972    2    70          
2003-11-20 00   12.7    71.5     976    2    65          
2003-11-20 06   12.9    70.7     984    2    55          
2003-11-20 12   13.1    69.7     991    1    45          
2003-11-20 18   13.2    68.5     991         35          
2003-11-21 00   13.3    67.3     997         35          
2003-11-21 06   13.3    65.9    1000         30          
2003-11-21 12   12.9    64.5    1000         30          
2003-11-21 18   12.7    63.0    1000         30          
2003-11-22 00   12.9    61.4    1000         30          
2003-11-22 06   13.1    59.8    1000         30          
2003-11-22 12   12.8    58.5    1000         30          
2003-11-22 18   12.7    57.2    1002         25          
Winds are 1-min average.

Tropical cyclone tracks developed by Michael Bath using data from the Joint Typhoon Warning Centre Best Tracks and Google Maps.


[Australian Severe Weather index] [Copyright Notice] [Email Contacts] [Search This Site] [Privacy Policy]
Document: tropical_cyclone_beni.htm Updated: 28 June 2017